Time;durP1;ratioP1;P1;durP2;ratioP2;P2;SDS_P1;SDS_P2;PMS_P1;PMS_P2;Temp;Humidity;BMP_temperature;BMP_pressure;BME280_temperature;BME280_humidity;BME280_pressure;Samples;Min_cycle;Max_cycle;Signal;HPM_P1;HPM_P2
2021/12/03 00:00:55;;;;;;;;;;;;;;;;;;5096336;28;19988;-75
2021/12/03 00:03:20;;;;;;;;;;;;;;;;;;5096550;28;19959;-76
2021/12/03 00:05:46;;;;;;;;;;;;;;;;;;5095232;28;19923;-75
2021/12/03 00:08:11;;;;;;;;;;;;;;;;;;5095058;28;19924;-75
2021/12/03 00:10:38;;;;;;;;;;;;;;;;;;5096357;28;19916;-75
2021/12/03 00:13:04;;;;;;;;;;;;;;;;;;5096405;28;20020;-75
2021/12/03 00:15:30;;;;;;;;;;;;;;;;;;5095077;28;19923;-74
2021/12/03 00:17:55;;;;;;;;;;;;;;;;;;5095690;28;19916;-76
2021/12/03 00:20:21;;;;;;;;;;;;;;;;;;5096148;28;19926;-75
2021/12/03 00:22:48;;;;;;;;;;;;;;;;;;5096316;28;19959;-75
2021/12/03 00:25:14;;;;;;;;;;;;;;;;;;5094751;28;19919;-75
2021/12/03 00:27:40;;;;;;;;;;;;;;;;;;5095889;28;20251;-75
2021/12/03 00:30:06;;;;;;;;;;;;;;;;;;5095906;28;19916;-75
2021/12/03 00:32:32;;;;;;;;;;;;;;;;;;5095867;28;19920;-75
2021/12/03 00:34:57;;;;;;;;;;;;;;;;;;5095037;28;19923;-75
2021/12/03 00:37:23;;;;;;;;;;;;;;;;;;5095301;28;19923;-76
2021/12/03 00:39:49;;;;;;;;;;;;;;;;;;5095543;28;20023;-75
2021/12/03 00:42:16;;;;;;;;;;;;;;;;;;5095204;28;19916;-75
2021/12/03 00:44:44;;;;;;;;;;;;;;;;;;5095549;28;20428;-75
2021/12/03 00:47:10;;;;;;;;;;;;;;;;;;5095670;28;19920;-76
2021/12/03 00:49:35;;;;;;;;;;;;;;;;;;5094207;28;19923;-76
2021/12/03 00:52:00;;;;;;;;;;;;;;;;;;5095567;28;19920;-76
2021/12/03 00:54:26;;;;;;;;;;;;;;;;;;5095213;28;19923;-75
2021/12/03 00:56:51;;;;;;;;;;;;;;;;;;5095660;28;19927;-75
2021/12/03 00:59:16;;;;;;;;;;;;;;;;;;5095220;28;19923;-75
2021/12/03 01:01:41;;;;;;;;;;;;;;;;;;5095260;28;19917;-76
2021/12/03 01:04:07;;;;;;;;;;;;;;;;;;5095154;28;20014;-76
2021/12/03 01:06:32;;;;;;;;;;;;;;;;;;5112984;28;20373;-76
2021/12/03 01:08:58;;;;;;;;;;;;;;;;;;5115681;28;19923;-76
2021/12/03 01:11:23;;;;;;;;;;;;;;;;;;5115668;28;20002;-76
2021/12/03 01:13:49;;;;;;;;;;;;;;;;;;5115421;28;20010;-75
2021/12/03 01:16:15;;;;;;;;;;;;;;;;;;5115730;28;19966;-75
2021/12/03 01:18:40;;;;;;;;;;;;;;;;;;5115342;28;19930;-76
2021/12/03 01:21:06;;;;;;;;;;;;;;;;;;5115581;28;19975;-75
2021/12/03 01:23:31;;;;;;;;;;;;;;;;;;5115272;28;19924;-75
2021/12/03 01:25:57;;;;;;;;;;;;;;;;;;5115241;28;19981;-75
2021/12/03 01:28:22;;;;;;;;;;;;;;;;;;5114250;28;19920;-75
2021/12/03 01:30:48;;;;;;;;;;;;;;;;;;5115045;28;19959;-75
2021/12/03 01:33:13;;;;;;;;;;;;;;;;;;5115058;28;19915;-76
2021/12/03 01:35:39;;;;;;;;;;;;;;;;;;5100286;28;19920;-75
2021/12/03 01:38:05;;;;;;;;;;;;;;;;;;5094395;28;19916;-76
2021/12/03 01:40:31;;;;;;;;;;;;;;;;;;5094007;28;20015;-75
2021/12/03 01:42:56;;;;;;;;;;;;;;;;;;5094872;28;20019;-75
2021/12/03 01:45:24;;;;;;;;;;;;;;;;;;5093692;28;20336;-76
2021/12/03 01:47:50;;;;;;;;;;;;;;;;;;5093951;28;19967;-76
2021/12/03 01:50:15;;;;;;;;;;;;;;;;;;5094494;28;20001;-75
2021/12/03 01:52:40;;;;;;;;;;;;;;;;;;5093614;28;20062;-75
2021/12/03 01:55:08;;;;;;;;;;;;;;;;;;5094290;28;20473;-75
2021/12/03 01:57:33;;;;;;;;;;;;;;;;;;5093944;28;19923;-75
2021/12/03 01:59:58;;;;;;;;;;;;;;;;;;5094272;28;20290;-75
2021/12/03 02:02:24;;;;;;;;;;;;;;;;;;5092965;28;20005;-76
2021/12/03 02:04:49;;;;;;;;;;;;;;;;;;5080818;28;19916;-76
2021/12/03 02:07:15;;;;;;;;;;;;;;;;;;5073886;28;19920;-76
2021/12/03 02:09:40;;;;;;;;;;;;;;;;;;5073689;28;19917;-76
2021/12/03 02:12:06;;;;;;;;;;;;;;;;;;5073807;28;19916;-76
2021/12/03 02:14:31;;;;;;;;;;;;;;;;;;5073645;28;19920;-76
2021/12/03 02:16:57;;;;;;;;;;;;;;;;;;5073507;28;19916;-77
2021/12/03 02:19:22;;;;;;;;;;;;;;;;;;5074112;28;19917;-76
2021/12/03 02:21:48;;;;;;;;;;;;;;;;;;5073702;28;20061;-77
2021/12/03 02:24:14;;;;;;;;;;;;;;;;;;5072418;28;19912;-76
2021/12/03 02:26:41;;;;;;;;;;;;;;;;;;5073499;28;20390;-76
2021/12/03 02:29:07;;;;;;;;;;;;;;;;;;5096600;28;19916;-75
2021/12/03 02:31:33;;;;;;;;;;;;;;;;;;5114095;28;20373;-76
2021/12/03 02:33:58;;;;;;;;;;;;;;;;;;5104327;28;19915;-76
2021/12/03 02:36:24;;;;;;;;;;;;;;;;;;5093886;28;19916;-76
2021/12/03 02:38:49;;;;;;;;;;;;;;;;;;5093508;28;19916;-76
2021/12/03 02:41:17;;;;;;;;;;;;;;;;;;5093979;28;19923;-76
2021/12/03 02:43:43;;;;;;;;;;;;;;;;;;5092389;28;19920;-76
2021/12/03 02:46:08;;;;;;;;;;;;;;;;;;5093679;28;19923;-76
2021/12/03 02:48:35;;;;;;;;;;;;;;;;;;5093270;28;19920;-76
2021/12/03 02:51:01;;;;;;;;;;;;;;;;;;5093461;28;19938;-76
2021/12/03 02:53:26;;;;;;;;;;;;;;;;;;5093408;28;20357;-76
2021/12/03 02:55:51;;;;;;;;;;;;;;;;;;5081893;28;19916;-76
2021/12/03 02:58:17;;;;;;;;;;;;;;;;;;5073549;28;19916;-76
2021/12/03 03:00:43;;;;;;;;;;;;;;;;;;5073156;28;20007;-76
2021/12/03 03:03:08;;;;;;;;;;;;;;;;;;5090163;28;19916;-76
2021/12/03 03:05:33;;;;;;;;;;;;;;;;;;5097099;28;20018;-76
2021/12/03 03:07:59;;;;;;;;;;;;;;;;;;5097550;28;19926;-76
2021/12/03 03:10:28;;;;;;;;;;;;;;;;;;5096948;28;19952;-76
2021/12/03 03:12:54;;;;;;;;;;;;;;;;;;5096361;28;19998;-76
2021/12/03 03:15:19;;;;;;;;;;;;;;;;;;5096265;28;20350;-76
2021/12/03 03:17:45;;;;;;;;;;;;;;;;;;5097031;28;20428;-76
2021/12/03 03:20:10;;;;;;;;;;;;;;;;;;5097325;28;20332;-76
2021/12/03 03:22:36;;;;;;;;;;;;;;;;;;5096144;28;20348;-76
2021/12/03 03:25:03;;;;;;;;;;;;;;;;;;5096497;28;20385;-76
2021/12/03 03:27:29;;;;;;;;;;;;;;;;;;5095903;28;20007;-76
2021/12/03 03:29:54;;;;;;;;;;;;;;;;;;5095805;28;19916;-76
2021/12/03 03:32:21;;;;;;;;;;;;;;;;;;5096984;28;20011;-76
2021/12/03 03:34:46;;;;;;;;;;;;;;;;;;5111496;28;19923;-76
2021/12/03 03:37:11;;;;;;;;;;;;;;;;;;5117440;28;19920;-76
2021/12/03 03:39:37;;;;;;;;;;;;;;;;;;5117538;28;19916;-76
2021/12/03 03:42:02;;;;;;;;;;;;;;;;;;5117296;28;19961;-76
2021/12/03 03:44:28;;;;;;;;;;;;;;;;;;5116997;28;19955;-76
2021/12/03 03:46:54;;;;;;;;;;;;;;;;;;5117072;28;20317;-76
2021/12/03 03:49:20;;;;;;;;;;;;;;;;;;5116888;28;20305;-76
2021/12/03 03:51:46;;;;;;;;;;;;;;;;;;5117110;28;19963;-76
2021/12/03 03:54:11;;;;;;;;;;;;;;;;;;5116806;28;20052;-76
2021/12/03 03:56:37;;;;;;;;;;;;;;;;;;5117164;28;20430;-76
2021/12/03 03:59:02;;;;;;;;;;;;;;;;;;5115598;28;19915;-77
2021/12/03 04:01:27;;;;;;;;;;;;;;;;;;5116978;28;19963;-76
2021/12/03 04:03:53;;;;;;;;;;;;;;;;;;5109088;28;19923;-76
2021/12/03 04:06:19;;;;;;;;;;;;;;;;;;5096489;28;19924;-76
2021/12/03 04:08:45;;;;;;;;;;;;;;;;;;5096444;28;19973;-76
2021/12/03 04:11:11;;;;;;;;;;;;;;;;;;5096320;28;19919;-76
2021/12/03 04:13:37;;;;;;;;;;;;;;;;;;5096143;28;19923;-76
2021/12/03 04:16:02;;;;;;;;;;;;;;;;;;5096034;28;19916;-76
2021/12/03 04:18:28;;;;;;;;;;;;;;;;;;5094936;28;19916;-76
2021/12/03 04:20:53;;;;;;;;;;;;;;;;;;5096269;28;19916;-76
2021/12/03 04:23:20;;;;;;;;;;;;;;;;;;5096243;28;19923;-76
2021/12/03 04:25:46;;;;;;;;;;;;;;;;;;5095939;28;19969;-76
2021/12/03 04:28:11;;;;;;;;;;;;;;;;;;5094939;28;19943;-77
2021/12/03 04:30:37;;;;;;;;;;;;;;;;;;5094863;28;20013;-77
2021/12/03 04:33:02;;;;;;;;;;;;;;;;;;5095965;28;20073;-76
2021/12/03 04:35:28;;;;;;;;;;;;;;;;;;5095978;28;19955;-76
2021/12/03 04:37:54;;;;;;;;;;;;;;;;;;5095713;28;20374;-76
2021/12/03 04:40:20;;;;;;;;;;;;;;;;;;5095844;28;19916;-76
2021/12/03 04:42:46;;;;;;;;;;;;;;;;;;5094915;28;20347;-77
2021/12/03 04:45:12;;;;;;;;;;;;;;;;;;5095354;28;19924;-76
2021/12/03 04:47:37;;;;;;;;;;;;;;;;;;5095706;28;19927;-76
2021/12/03 04:50:04;;;;;;;;;;;;;;;;;;5095588;28;19915;-76
2021/12/03 04:52:30;;;;;;;;;;;;;;;;;;5095137;28;20438;-75
2021/12/03 04:54:55;;;;;;;;;;;;;;;;;;5095628;28;19916;-77
2021/12/03 04:57:21;;;;;;;;;;;;;;;;;;5093961;28;20348;-76
2021/12/03 04:59:46;;;;;;;;;;;;;;;;;;5095458;28;19916;-76
2021/12/03 05:02:12;;;;;;;;;;;;;;;;;;5095369;28;20403;-77
2021/12/03 05:04:38;;;;;;;;;;;;;;;;;;5095336;28;19923;-76
2021/12/03 05:09:39;;;;;;;;;;;;;;;;;;5095071;28;19974;-77
2021/12/03 05:12:04;;;;;;;;;;;;;;;;;;5097774;28;19916;-76
2021/12/03 05:14:30;;;;;;;;;;;;;;;;;;5114200;28;19915;-76
2021/12/03 05:16:55;;;;;;;;;;;;;;;;;;5115494;28;19922;-76
2021/12/03 05:19:21;;;;;;;;;;;;;;;;;;5101693;28;19916;-75
2021/12/03 05:21:46;;;;;;;;;;;;;;;;;;5094971;28;20419;-75
2021/12/03 05:24:11;;;;;;;;;;;;;;;;;;5094903;28;19973;-75
2021/12/03 05:26:38;;;;;;;;;;;;;;;;;;5094386;28;19955;-76
2021/12/03 05:29:04;;;;;;;;;;;;;;;;;;5094955;28;19927;-75
2021/12/03 05:31:30;;;;;;;;;;;;;;;;;;5094696;28;19920;-75
2021/12/03 05:33:55;;;;;;;;;;;;;;;;;;5094719;28;19916;-75
2021/12/03 05:36:20;;;;;;;;;;;;;;;;;;5094499;28;19962;-75
2021/12/03 05:38:46;;;;;;;;;;;;;;;;;;5093593;28;19916;-76
2021/12/03 05:41:11;;;;;;;;;;;;;;;;;;5094794;28;19973;-75
2021/12/03 05:43:36;;;;;;;;;;;;;;;;;;5094602;28;20390;-75
2021/12/03 05:46:02;;;;;;;;;;;;;;;;;;5094608;28;19923;-75
2021/12/03 05:48:27;;;;;;;;;;;;;;;;;;5099172;28;19920;-76
2021/12/03 05:50:52;;;;;;;;;;;;;;;;;;5114815;28;19919;-76
2021/12/03 05:53:18;;;;;;;;;;;;;;;;;;5114887;28;19916;-75
2021/12/03 05:55:43;;;;;;;;;;;;;;;;;;5114679;28;19985;-75
2021/12/03 05:58:09;;;;;;;;;;;;;;;;;;5113535;28;19943;-76
2021/12/03 06:00:37;;;;;;;;;;;;;;;;;;5114586;28;19916;-76
2021/12/03 06:03:03;;;;;;;;;;;;;;;;;;5114424;28;20389;-76
2021/12/03 06:05:29;;;;;;;;;;;;;;;;;;5109746;28;19920;-75
2021/12/03 06:07:55;;;;;;;;;;;;;;;;;;5094178;28;20381;-77
2021/12/03 06:10:20;;;;;;;;;;;;;;;;;;5093992;28;19969;-76
2021/12/03 06:12:46;;;;;;;;;;;;;;;;;;5094328;28;19916;-76
2021/12/03 06:15:14;;;;;;;;;;;;;;;;;;5094100;28;20285;-75
2021/12/03 06:17:40;;;;;;;;;;;;;;;;;;5093818;28;19916;-76
2021/12/03 06:20:05;;;;;;;;;;;;;;;;;;5093947;28;19916;-76
2021/12/03 06:22:31;;;;;;;;;;;;;;;;;;5093980;28;19922;-76
2021/12/03 06:24:56;;;;;;;;;;;;;;;;;;5094007;28;19956;-76
2021/12/03 06:27:24;;;;;;;;;;;;;;;;;;5093386;28;19931;-76
2021/12/03 06:29:49;;;;;;;;;;;;;;;;;;5093365;28;20018;-76
2021/12/03 06:32:15;;;;;;;;;;;;;;;;;;5093727;28;19916;-76
2021/12/03 06:34:40;;;;;;;;;;;;;;;;;;5093428;28;19919;-76
2021/12/03 06:37:05;;;;;;;;;;;;;;;;;;5093723;28;19985;-76
2021/12/03 06:39:31;;;;;;;;;;;;;;;;;;5095573;28;19919;-76
2021/12/03 06:41:56;;;;;;;;;;;;;;;;;;5098034;28;19916;-76
2021/12/03 06:44:23;;;;;;;;;;;;;;;;;;5097835;28;20006;-76
2021/12/03 06:46:48;;;;;;;;;;;;;;;;;;5098009;28;20399;-76
2021/12/03 06:49:13;;;;;;;;;;;;;;;;;;5097881;28;19920;-76
2021/12/03 06:51:43;;;;;;;;;;;;;;;;;;5097914;28;20003;-75
2021/12/03 06:54:10;;;;;;;;;;;;;;;;;;5097649;28;19923;-76
2021/12/03 06:56:48;;;;;;;;;;;;;;;;;;5097763;28;19916;-75
2021/12/03 06:59:16;;;;;;;;;;;;;;;;;;5097626;28;19923;-75
2021/12/03 07:01:42;;;;;;;;;;;;;;;;;;5098915;28;19920;-78
2021/12/03 07:04:07;;;;;;;;;;;;;;;;;;5090174;28;19923;-77
2021/12/03 07:06:32;;;;;;;;;;;;;;;;;;5079818;28;19962;-78
2021/12/03 07:08:58;;;;;;;;;;;;;;;;;;5077922;28;20302;-77
2021/12/03 07:11:23;;;;;;;;;;;;;;;;;;5077668;28;20377;-78
2021/12/03 07:13:49;;;;;;;;;;;;;;;;;;5077137;28;20007;-77
2021/12/03 07:16:14;;;;;;;;;;;;;;;;;;5077129;28;19916;-76
2021/12/03 07:18:39;;;;;;;;;;;;;;;;;;5080663;28;19917;-78
2021/12/03 07:21:05;;;;;;;;;;;;;;;;;;5078763;28;19912;-78
2021/12/03 07:23:31;;;;;;;;;;;;;;;;;;5080374;28;19923;-78
2021/12/03 07:25:58;;;;;;;;;;;;;;;;;;5078854;28;19998;-77
2021/12/03 07:28:24;;;;;;;;;;;;;;;;;;5078751;28;19924;-81
2021/12/03 07:30:49;;;;;;;;;;;;;;;;;;5082345;28;19916;-79
2021/12/03 07:33:17;;;;;;;;;;;;;;;;;;5080439;28;19916;-78
2021/12/03 07:35:44;;;;;;;;;;;;;;;;;;5079036;28;20401;-77
2021/12/03 07:38:11;;;;;;;;;;;;;;;;;;5082256;28;19969;-80
2021/12/03 07:40:36;;;;;;;;;;;;;;;;;;5082622;28;20306;-79
2021/12/03 07:43:01;;;;;;;;;;;;;;;;;;5081848;28;19928;-82
2021/12/03 07:45:27;;;;;;;;;;;;;;;;;;5081437;28;20329;-82
2021/12/03 07:47:52;;;;;;;;;;;;;;;;;;5082210;28;19920;-81
2021/12/03 07:50:17;;;;;;;;;;;;;;;;;;5078383;28;19951;-80
2021/12/03 07:52:43;;;;;;;;;;;;;;;;;;5081149;28;20386;-79
2021/12/03 07:55:08;;;;;;;;;;;;;;;;;;5080498;28;20344;-79
2021/12/03 07:57:34;;;;;;;;;;;;;;;;;;5077855;28;19917;-75
2021/12/03 07:59:59;;;;;;;;;;;;;;;;;;5079517;28;19919;-80
2021/12/03 08:02:26;;;;;;;;;;;;;;;;;;5089173;28;19916;-80
2021/12/03 08:04:51;;;;;;;;;;;;;;;;;;5099706;28;19916;-79
2021/12/03 08:07:17;;;;;;;;;;;;;;;;;;5096962;28;20435;-76
2021/12/03 08:09:42;;;;;;;;;;;;;;;;;;5098207;28;19927;-78
2021/12/03 08:12:08;;;;;;;;;;;;;;;;;;5105774;28;19923;-78
2021/12/03 08:14:33;;;;;;;;;;;;;;;;;;5095580;28;19923;-76
2021/12/03 08:17:05;;;;;;;;;;;;;;;;;;5095972;28;20285;-75
2021/12/03 08:19:30;;;;;;;;;;;;;;;;;;5096247;28;19943;-75
2021/12/03 08:21:56;;;;;;;;;;;;;;;;;;5078772;28;20006;-78
2021/12/03 08:24:21;;;;;;;;;;;;;;;;;;5097955;28;19920;-77
2021/12/03 08:26:46;;;;;;;;;;;;;;;;;;5096640;28;19909;-75
2021/12/03 08:29:13;;;;;;;;;;;;;;;;;;5095971;28;19927;-76
2021/12/03 08:31:39;;;;;;;;;;;;;;;;;;5096061;28;19986;-76
2021/12/03 08:34:05;;;;;;;;;;;;;;;;;;5095750;28;19947;-76
2021/12/03 08:36:30;;;;;;;;;;;;;;;;;;5095559;28;19993;-75
2021/12/03 08:38:56;;;;;;;;;;;;;;;;;;5101681;28;19916;-82
2021/12/03 08:41:22;;;;;;;;;;;;;;;;;;5109026;28;20348;-81
2021/12/03 08:43:48;;;;;;;;;;;;;;;;;;5106195;28;19916;-83
2021/12/03 08:46:22;;;;;;;;;;;;;;;;;;5104451;28;19959;-78
2021/12/03 08:48:48;;;;;;;;;;;;;;;;;;5104836;28;19931;-78
2021/12/03 08:56:26;;;;;;;;;;;;;;;;;;5100110;28;19924;-78
2021/12/03 08:58:52;;;;;;;;;;;;;;;;;;5104374;28;19920;-78
2021/12/03 09:01:18;;;;;;;;;;;;;;;;;;5105729;28;19912;-78
2021/12/03 09:03:45;;;;;;;;;;;;;;;;;;5088544;28;19927;-77
2021/12/03 09:06:10;;;;;;;;;;;;;;;;;;5105100;28;19924;-78
2021/12/03 09:08:35;;;;;;;;;;;;;;;;;;5132049;28;19920;-78
2021/12/03 09:11:01;;;;;;;;;;;;;;;;;;5128529;28;19923;-80
2021/12/03 09:13:26;;;;;;;;;;;;;;;;;;5125296;28;19915;-80
2021/12/03 09:16:00;;;;;;;;;;;;;;;;;;5125073;28;19919;-80
2021/12/03 09:18:29;;;;;;;;;;;;;;;;;;5108889;28;19937;-78
2021/12/03 09:21:03;;;;;;;;;;;;;;;;;;5123787;28;19916;-80
2021/12/03 09:23:41;;;;;;;;;;;;;;;;;;5123224;28;20351;-79
2021/12/03 09:26:12;;;;;;;;;;;;;;;;;;5124340;28;19915;-81
2021/12/03 09:28:39;;;;;;;;;;;;;;;;;;5126144;28;19919;-79
2021/12/03 09:31:05;;;;;;;;;;;;;;;;;;5128823;28;19920;-83
2021/12/03 09:33:32;;;;;;;;;;;;;;;;;;5120127;28;19920;-81
2021/12/03 09:36:01;;;;;;;;;;;;;;;;;;5121696;28;20011;-78
2021/12/03 09:38:31;;;;;;;;;;;;;;;;;;5117007;28;19962;-75
2021/12/03 09:40:59;;;;;;;;;;;;;;;;;;5115818;28;19922;-75
2021/12/03 09:43:24;;;;;;;;;;;;;;;;;;5115173;28;19922;-76
2021/12/03 09:46:02;;;;;;;;;;;;;;;;;;5114716;28;19920;-74
2021/12/03 09:48:37;;;;;;;;;;;;;;;;;;5116463;28;19920;-76
2021/12/03 09:51:03;;;;;;;;;;;;;;;;;;5114491;28;19919;-74
2021/12/03 09:56:16;;;;;;;;;;;;;;;;;;5092230;28;20300;-76
2021/12/03 09:59:14;;;;;;;;;;;;;;;;;;5114291;28;19919;-75
2021/12/03 10:04:20;;;;;;;;;;;;;;;;;;5116101;28;20389;-76
2021/12/03 10:14:51;;;;;;;;;;;;;;;;;;5094259;28;19916;-78
2021/12/03 10:20:16;;;;;;;;;;;;;;;;;;5098241;28;20336;-78
2021/12/03 10:31:00;;;;;;;;;;;;;;;;;;5099674;28;19916;-82
2021/12/03 10:38:48;;;;;;;;;;;;;;;;;;5125143;28;19916;-84
2021/12/03 10:46:43;;;;;;;;;;;;;;;;;;5105050;28;19916;-84
2021/12/03 11:01:28;;;;;;;;;;;;;;;;;;5105988;28;19916;-82
2021/12/03 11:30:42;;;;;;;;;;;;;;;;;;5078183;28;19916;-78
2021/12/03 11:42:07;;;;;;;;;;;;;;;;;;5066388;28;19923;-75
2021/12/03 12:09:29;;;;;;;;;;;;;;;;;;5096511;28;19954;-75
2021/12/03 12:13:51;;;;;;;;;;;;;;;;;;5096397;28;19948;-74
2021/12/03 13:13:45;;;;;;;;;;;;;;;;;;5062676;28;19917;-72
2021/12/03 13:19:50;;;;;;;;;;;;;;;;;;5094079;28;19927;-72
2021/12/03 13:45:14;;;;;;;;;;;;;;;;;;5083380;28;19928;-73
2021/12/03 14:00:36;;;;;;;;;;;;;;;;;;5090480;28;19916;-77
2021/12/03 14:11:45;;;;;;;;;;;;;;;;;;5076326;28;19916;-77
2021/12/03 14:15:03;;;;;;;;;;;;;;;;;;5078043;28;19916;-78
2021/12/03 14:24:39;;;;;;;;;;;;;;;;;;5082779;28;19995;-77
2021/12/03 14:41:34;;;;;;;;;;;;;;;;;;5076124;28;19959;-78
2021/12/03 14:47:08;;;;;;;;;;;;;;;;;;5076764;28;20003;-76
2021/12/03 14:52:15;;;;;;;;;;;;;;;;;;5079832;28;19924;-74
2021/12/03 14:57:43;;;;;;;;;;;;;;;;;;5075046;28;19955;-77
2021/12/03 15:00:22;;;;;;;;;;;;;;;;;;5076799;28;19916;-77
2021/12/03 15:03:01;;;;;;;;;;;;;;;;;;5075255;28;19924;-77
2021/12/03 15:06:19;;;;;;;;;;;;;;;;;;5115957;28;19916;-77
2021/12/03 15:14:26;;;;;;;;;;;;;;;;;;5097461;28;20369;-76
2021/12/03 15:20:08;;;;;;;;;;;;;;;;;;5097877;28;19947;-77
2021/12/03 15:33:09;;;;;;;;;;;;;;;;;;5074107;28;19917;-76
2021/12/03 15:35:46;;;;;;;;;;;;;;;;;;5094124;28;20423;-76
2021/12/03 15:41:47;;;;;;;;;;;;;;;;;;5033660;28;20407;-76
2021/12/03 16:08:25;;;;;;;;;;;;;;;;;;5085452;28;19963;-76
2021/12/03 16:11:56;;;;;;;;;;;;;;;;;;5083819;28;19999;-76
2021/12/03 16:21:52;;;;;;;;;;;;;;;;;;5085531;28;19917;-77
2021/12/03 16:51:13;;;;;;;;;;;;;;;;;;5099690;28;19923;-79
2021/12/03 16:53:39;;;;;;;;;;;;;;;;;;5080718;28;19916;-79
2021/12/03 16:56:14;;;;;;;;;;;;;;;;;;5098510;28;19993;-79
2021/12/03 16:58:40;;;;;;;;;;;;;;;;;;5098639;28;20290;-79
2021/12/03 17:09:18;;;;;;;;;;;;;;;;;;5097460;28;20019;-79
2021/12/03 17:14:42;;;;;;;;;;;;;;;;;;5084957;28;20340;-80
2021/12/03 17:54:25;;;;;;;;;;;;;;;;;;5094271;28;19916;-76
2021/12/03 17:56:52;;;;;;;;;;;;;;;;;;5096550;28;19959;-78
2021/12/03 17:59:28;;;;;;;;;;;;;;;;;;5096987;28;19923;-77
2021/12/03 18:02:13;;;;;;;;;;;;;;;;;;5097293;28;19937;-77
2021/12/03 18:07:34;;;;;;;;;;;;;;;;;;5096998;28;20104;-79
2021/12/03 18:55:57;;;;;;;;;;;;;;;;;;5096674;28;19942;-81
2021/12/03 18:58:25;;;;;;;;;;;;;;;;;;5100824;28;19920;-80
2021/12/03 19:00:51;;;;;;;;;;;;;;;;;;5100597;28;19916;-84
2021/12/03 19:03:56;;;;;;;;;;;;;;;;;;5100160;28;19924;-79
2021/12/03 19:09:05;;;;;;;;;;;;;;;;;;5096088;28;20170;-79
2021/12/03 19:11:40;;;;;;;;;;;;;;;;;;5105994;28;20263;-80
2021/12/03 19:14:07;;;;;;;;;;;;;;;;;;5098964;28;19916;-80
2021/12/03 19:16:33;;;;;;;;;;;;;;;;;;5098257;28;19920;-79
2021/12/03 19:19:13;;;;;;;;;;;;;;;;;;5099621;28;19920;-80
2021/12/03 19:21:39;;;;;;;;;;;;;;;;;;5100403;28;20042;-80
2021/12/03 19:24:06;;;;;;;;;;;;;;;;;;5101932;28;19919;-81
2021/12/03 19:26:32;;;;;;;;;;;;;;;;;;5101537;28;19916;-80
2021/12/03 19:29:01;;;;;;;;;;;;;;;;;;5102511;28;19931;-79
2021/12/03 19:31:27;;;;;;;;;;;;;;;;;;5100220;28;19916;-80
2021/12/03 19:33:52;;;;;;;;;;;;;;;;;;5090958;28;19938;-79
2021/12/03 19:36:26;;;;;;;;;;;;;;;;;;5093804;28;20437;-79
2021/12/03 19:38:53;;;;;;;;;;;;;;;;;;5089250;28;19920;-79
2021/12/03 19:41:31;;;;;;;;;;;;;;;;;;5084640;28;19938;-79
2021/12/03 19:43:59;;;;;;;;;;;;;;;;;;5073928;28;19920;-81
2021/12/03 20:15:01;;;;;;;;;;;;;;;;;;5034190;28;20484;-79
2021/12/03 20:17:31;;;;;;;;;;;;;;;;;;5037810;28;19917;-79
2021/12/03 20:20:02;;;;;;;;;;;;;;;;;;5033317;28;19925;-80
2021/12/03 20:37:31;;;;;;;;;;;;;;;;;;5084876;28;19940;-79
2021/12/03 20:40:00;;;;;;;;;;;;;;;;;;5083020;28;19917;-79
2021/12/03 20:42:31;;;;;;;;;;;;;;;;;;5081300;28;19938;-79
2021/12/03 20:52:53;;;;;;;;;;;;;;;;;;5103402;28;20504;-79
2021/12/03 20:57:16;;;;;;;;;;;;;;;;;;5102962;28;19923;-78
2021/12/03 21:09:08;;;;;;;;;;;;;;;;;;5107729;28;19920;-78
2021/12/03 21:11:36;;;;;;;;;;;;;;;;;;5107339;28;19931;-78
2021/12/03 21:14:03;;;;;;;;;;;;;;;;;;5106750;28;19916;-79
2021/12/03 21:19:24;;;;;;;;;;;;;;;;;;5106563;28;19951;-78
2021/12/03 21:21:56;;;;;;;;;;;;;;;;;;5108494;28;19916;-78
2021/12/03 21:24:22;;;;;;;;;;;;;;;;;;5108531;28;19945;-78
2021/12/03 21:26:53;;;;;;;;;;;;;;;;;;5107225;28;19975;-78
2021/12/03 21:29:45;;;;;;;;;;;;;;;;;;5107812;28;19965;-78
2021/12/03 21:40:26;;;;;;;;;;;;;;;;;;5106610;28;19916;-79
2021/12/03 21:42:51;;;;;;;;;;;;;;;;;;5108128;28;19942;-79
2021/12/03 21:45:18;;;;;;;;;;;;;;;;;;5106688;28;19920;-78
2021/12/03 21:47:43;;;;;;;;;;;;;;;;;;5106846;28;19927;-78
2021/12/03 21:50:09;;;;;;;;;;;;;;;;;;5107141;28;19924;-78
2021/12/03 21:52:34;;;;;;;;;;;;;;;;;;5107034;28;19947;-78
2021/12/03 21:55:06;;;;;;;;;;;;;;;;;;5107298;28;19938;-79
2021/12/03 21:57:33;;;;;;;;;;;;;;;;;;5107251;28;19916;-79
2021/12/03 22:00:06;;;;;;;;;;;;;;;;;;5105391;28;19937;-78
2021/12/03 22:02:37;;;;;;;;;;;;;;;;;;5085592;28;19995;-78
2021/12/03 22:05:04;;;;;;;;;;;;;;;;;;5085983;28;19917;-79
2021/12/03 22:07:29;;;;;;;;;;;;;;;;;;5100386;28;20328;-78
2021/12/03 22:09:55;;;;;;;;;;;;;;;;;;5103480;28;19916;-79
2021/12/03 22:12:20;;;;;;;;;;;;;;;;;;5086343;28;19919;-79
2021/12/03 22:14:46;;;;;;;;;;;;;;;;;;5102951;28;19927;-79
2021/12/03 22:17:11;;;;;;;;;;;;;;;;;;5105197;28;19916;-79
2021/12/03 22:19:36;;;;;;;;;;;;;;;;;;5105834;28;19916;-78
2021/12/03 22:22:03;;;;;;;;;;;;;;;;;;5104696;28;19920;-78
2021/12/03 22:24:29;;;;;;;;;;;;;;;;;;5105228;28;20437;-79
2021/12/03 22:26:54;;;;;;;;;;;;;;;;;;5104273;28;19961;-79
2021/12/03 22:29:20;;;;;;;;;;;;;;;;;;5105879;28;19926;-79
2021/12/03 22:31:45;;;;;;;;;;;;;;;;;;5103933;28;20433;-80
2021/12/03 22:34:12;;;;;;;;;;;;;;;;;;5105682;28;19915;-79
2021/12/03 22:36:39;;;;;;;;;;;;;;;;;;5088079;28;19916;-79
2021/12/03 22:39:09;;;;;;;;;;;;;;;;;;5102556;28;19920;-79
2021/12/03 22:41:37;;;;;;;;;;;;;;;;;;5105602;28;19923;-79
2021/12/03 22:44:03;;;;;;;;;;;;;;;;;;5103473;28;19959;-79
2021/12/03 22:46:40;;;;;;;;;;;;;;;;;;5106237;28;19923;-79
2021/12/03 22:54:11;;;;;;;;;;;;;;;;;;5107700;28;19916;-79
2021/12/03 22:56:37;;;;;;;;;;;;;;;;;;5107331;28;19919;-79
2021/12/03 22:59:02;;;;;;;;;;;;;;;;;;5107688;28;19920;-79
2021/12/03 23:01:27;;;;;;;;;;;;;;;;;;5107228;28;19927;-79
2021/12/03 23:03:53;;;;;;;;;;;;;;;;;;5108185;28;19916;-78
2021/12/03 23:06:18;;;;;;;;;;;;;;;;;;5107900;28;19938;-79
2021/12/03 23:08:44;;;;;;;;;;;;;;;;;;5107523;28;19928;-79
2021/12/03 23:11:09;;;;;;;;;;;;;;;;;;5108085;28;19924;-79
2021/12/03 23:13:35;;;;;;;;;;;;;;;;;;5107347;28;19916;-79
2021/12/03 23:16:01;;;;;;;;;;;;;;;;;;5107586;28;19916;-79
2021/12/03 23:18:27;;;;;;;;;;;;;;;;;;5107971;28;19938;-78
2021/12/03 23:20:52;;;;;;;;;;;;;;;;;;5108475;28;19979;-79
2021/12/03 23:23:22;;;;;;;;;;;;;;;;;;5112042;28;19916;-79
2021/12/03 23:25:50;;;;;;;;;;;;;;;;;;5111036;28;19915;-79
2021/12/03 23:28:17;;;;;;;;;;;;;;;;;;5110371;28;19941;-79
2021/12/03 23:30:43;;;;;;;;;;;;;;;;;;5111853;28;19920;-79
2021/12/03 23:33:14;;;;;;;;;;;;;;;;;;5111399;28;19938;-79
2021/12/03 23:35:43;;;;;;;;;;;;;;;;;;5112329;28;19916;-79
2021/12/03 23:38:08;;;;;;;;;;;;;;;;;;5112225;28;19916;-79
2021/12/03 23:40:34;;;;;;;;;;;;;;;;;;5112133;28;19938;-79
2021/12/03 23:42:59;;;;;;;;;;;;;;;;;;5109407;28;19916;-79
2021/12/03 23:45:24;;;;;;;;;;;;;;;;;;5108678;28;19920;-79
2021/12/03 23:47:50;;;;;;;;;;;;;;;;;;5109622;28;19920;-80
2021/12/03 23:50:15;;;;;;;;;;;;;;;;;;5108393;28;19916;-77
2021/12/03 23:52:41;;;;;;;;;;;;;;;;;;5110161;28;19915;-79
2021/12/03 23:55:07;;;;;;;;;;;;;;;;;;5093474;28;19940;-78
2021/12/03 23:57:32;;;;;;;;;;;;;;;;;;5090689;28;20413;-79
2021/12/03 23:59:58;;;;;;;;;;;;;;;;;;5089441;28;19923;-78
